createdAt,value
2017-11-21T00:00:05.585Z,1001.4
2017-11-21T00:01:05.568Z,1001.35
2017-11-21T00:02:05.554Z,1001.36
2017-11-21T00:03:05.535Z,1001.37
2017-11-21T00:04:05.716Z,1001.38
2017-11-21T00:05:05.497Z,1001.41
2017-11-21T00:06:05.480Z,1001.35
2017-11-21T00:07:05.463Z,1001.39
2017-11-21T00:08:05.445Z,1001.4
2017-11-21T00:09:05.455Z,1001.4
2017-11-21T00:10:05.409Z,1001.44
2017-11-21T00:11:05.394Z,1001.43
2017-11-21T00:12:05.376Z,1001.46
2017-11-21T00:13:05.358Z,1001.51
2017-11-21T00:14:05.340Z,1001.48
2017-11-21T00:15:05.323Z,1001.47
2017-11-21T00:16:05.305Z,1001.46
2017-11-21T00:17:05.289Z,1001.43
2017-11-21T00:18:05.273Z,1001.49
2017-11-21T00:19:05.254Z,1001.47
2017-11-21T00:20:05.244Z,1001.5
2017-11-21T00:21:05.219Z,1001.48
2017-11-21T00:22:05.201Z,1001.43
2017-11-21T00:23:05.184Z,1001.38
2017-11-21T00:24:05.167Z,1001.38
2017-11-21T00:25:05.150Z,1001.38
2017-11-21T00:26:05.133Z,1001.38
2017-11-21T00:27:05.115Z,1001.34
2017-11-21T00:28:05.098Z,1001.35
2017-11-21T00:29:05.079Z,1001.33
2017-11-21T00:30:05.074Z,1001.3
2017-11-21T00:31:05.047Z,1001.33
2017-11-21T00:32:05.027Z,1001.3
2017-11-21T00:33:05.012Z,1001.32
2017-11-21T00:34:04.994Z,1001.28
2017-11-21T00:35:04.977Z,1001.3
2017-11-21T00:36:04.959Z,1001.26
2017-11-21T00:37:04.942Z,1001.24
2017-11-21T00:38:04.925Z,1001.29
2017-11-21T00:39:04.909Z,1001.3
2017-11-21T00:40:04.888Z,1001.32
2017-11-21T00:41:04.872Z,1001.33
2017-11-21T00:42:04.864Z,1001.35
2017-11-21T00:43:04.839Z,1001.36
2017-11-21T00:44:04.825Z,1001.4
2017-11-21T00:45:04.803Z,1001.44
2017-11-21T00:46:04.787Z,1001.45
2017-11-21T00:47:04.770Z,1001.47
2017-11-21T00:48:04.753Z,1001.48
2017-11-21T00:49:04.735Z,1001.48
2017-11-21T00:50:04.719Z,1001.48
2017-11-21T00:51:04.702Z,1001.49
2017-11-21T00:52:04.685Z,1001.46
2017-11-21T00:53:04.668Z,1001.44
2017-11-21T00:54:04.648Z,1001.44
2017-11-21T00:55:04.634Z,1001.5
2017-11-21T00:56:04.616Z,1001.51
2017-11-21T00:57:04.603Z,1001.59
2017-11-21T00:58:04.580Z,1001.61
2017-11-21T00:59:04.569Z,1001.53
2017-11-21T01:00:04.551Z,1001.54
2017-11-21T01:01:04.532Z,1001.56
2017-11-21T01:02:04.530Z,1001.58
2017-11-21T01:03:04.493Z,1001.6
2017-11-21T01:04:04.480Z,1001.58
2017-11-21T01:05:04.460Z,1001.6
2017-11-21T01:06:04.447Z,1001.63
2017-11-21T01:07:04.442Z,1001.59
2017-11-21T01:08:04.412Z,1001.67
2017-11-21T01:09:04.391Z,1001.66
2017-11-21T01:10:04.377Z,1001.66
2017-11-21T01:11:04.367Z,1001.67
2017-11-21T01:12:04.346Z,1001.67
2017-11-21T01:13:04.329Z,1001.72
2017-11-21T01:14:04.311Z,1001.7
2017-11-21T01:15:04.289Z,1001.7
2017-11-21T01:16:04.282Z,1001.69
2017-11-21T01:17:04.256Z,1001.66
2017-11-21T01:18:04.238Z,1001.69
2017-11-21T01:19:04.224Z,1001.69
2017-11-21T01:20:04.205Z,1001.67
2017-11-21T01:21:04.187Z,1001.71
2017-11-21T01:22:04.170Z,1001.7
2017-11-21T01:23:04.154Z,1001.63
2017-11-21T01:24:04.136Z,1001.69
2017-11-21T01:25:04.120Z,1001.72
2017-11-21T01:26:04.101Z,1001.75
2017-11-21T01:27:04.087Z,1001.78
2017-11-21T01:28:04.069Z,1001.82
2017-11-21T01:29:04.053Z,1001.78
2017-11-21T01:30:04.034Z,1001.81
2017-11-21T01:31:04.016Z,1001.8
2017-11-21T01:32:04.004Z,1001.85
2017-11-21T01:33:03.985Z,1001.84
2017-11-21T01:34:03.966Z,1001.84
2017-11-21T01:35:03.952Z,1001.88
2017-11-21T01:36:03.942Z,1001.85
2017-11-21T01:37:03.918Z,1001.82
2017-11-21T01:38:03.901Z,1001.82
2017-11-21T01:39:03.882Z,1001.84
2017-11-21T01:40:03.865Z,1001.82
2017-11-21T01:41:03.849Z,1001.84
2017-11-21T01:42:03.839Z,1001.84
2017-11-21T01:43:03.818Z,1001.81
2017-11-21T01:44:03.799Z,1001.85
2017-11-21T01:45:03.780Z,1001.83
2017-11-21T01:46:03.791Z,1001.79
2017-11-21T01:47:03.747Z,1001.79
2017-11-21T01:48:03.734Z,1001.86
2017-11-21T01:49:03.723Z,1001.87
2017-11-21T01:50:03.700Z,1001.82
2017-11-21T01:51:03.687Z,1001.82
2017-11-21T01:52:03.668Z,1001.84
2017-11-21T01:53:03.647Z,1001.84
2017-11-21T01:54:03.630Z,1001.86
2017-11-21T01:55:03.616Z,1001.83
2017-11-21T01:56:03.604Z,1001.87
2017-11-21T01:57:03.580Z,1001.79
2017-11-21T01:58:03.563Z,1001.8
2017-11-21T01:59:03.548Z,1001.81
2017-11-21T02:00:03.528Z,1001.78
2017-11-21T02:01:03.513Z,1001.83
2017-11-21T02:02:03.502Z,1001.77
2017-11-21T02:03:03.479Z,1001.8
2017-11-21T02:04:03.665Z,1001.8
2017-11-21T02:05:03.447Z,1001.81
2017-11-21T02:06:03.437Z,1001.79
2017-11-21T02:07:03.411Z,1001.78
2017-11-21T02:08:03.398Z,1001.79
2017-11-21T02:09:03.382Z,1001.78
2017-11-21T02:10:03.363Z,1001.78
2017-11-21T02:11:03.352Z,1001.74
2017-11-21T02:12:03.331Z,1001.77
2017-11-21T02:13:03.315Z,1001.77
2017-11-21T02:14:03.294Z,1001.76
2017-11-21T02:15:03.297Z,1001.77
2017-11-21T02:16:03.260Z,1001.81
2017-11-21T02:17:03.259Z,1001.78
2017-11-21T02:18:03.226Z,1001.82
2017-11-21T02:19:03.220Z,1001.8
2017-11-21T02:20:03.193Z,1001.83
2017-11-21T02:21:03.220Z,1001.84
2017-11-21T02:22:03.160Z,1001.83
2017-11-21T02:23:03.145Z,1001.79
2017-11-21T02:24:03.126Z,1001.8
2017-11-21T02:25:03.122Z,1001.79
2017-11-21T02:26:03.092Z,1001.81
2017-11-21T02:27:03.075Z,1001.82
2017-11-21T02:28:03.058Z,1001.84
2017-11-21T02:29:03.041Z,1001.81
2017-11-21T02:30:03.027Z,1001.81
2017-11-21T02:31:03.007Z,1001.82
2017-11-21T02:32:02.991Z,1001.79
2017-11-21T02:33:02.975Z,1001.78
2017-11-21T02:34:02.958Z,1001.75
2017-11-21T02:35:02.944Z,1001.77
2017-11-21T02:36:02.929Z,1001.77
2017-11-21T02:37:02.907Z,1001.77
2017-11-21T02:38:02.891Z,1001.75
2017-11-21T02:39:02.875Z,1001.78
2017-11-21T02:40:02.856Z,1001.79
2017-11-21T02:41:02.845Z,1001.78
2017-11-21T02:42:02.827Z,1001.81
2017-11-21T02:43:02.814Z,1001.76
2017-11-21T02:44:02.789Z,1001.75
2017-11-21T02:45:02.772Z,1001.78
2017-11-21T02:46:02.757Z,1001.76
2017-11-21T02:47:02.738Z,1001.79
2017-11-21T02:48:02.722Z,1001.79
2017-11-21T02:49:02.707Z,1001.78
2017-11-21T02:50:02.687Z,1001.83
2017-11-21T02:51:02.674Z,1001.8
2017-11-21T02:52:02.666Z,1001.82
2017-11-21T02:53:02.648Z,1001.85
2017-11-21T02:54:02.623Z,1001.84
2017-11-21T02:55:02.613Z,1001.8
2017-11-21T02:56:02.586Z,1001.81
2017-11-21T02:57:02.571Z,1001.75
2017-11-21T02:58:02.553Z,1001.77
2017-11-21T02:59:02.537Z,1001.8
2017-11-21T03:00:02.529Z,1001.8
2017-11-21T03:01:02.502Z,1001.77
2017-11-21T03:02:02.486Z,1001.78
2017-11-21T03:03:02.468Z,1001.8
2017-11-21T03:04:02.452Z,1001.82
2017-11-21T03:05:02.437Z,1001.81
2017-11-21T03:06:02.423Z,1001.81
2017-11-21T03:07:02.403Z,1001.81
2017-11-21T03:08:02.386Z,1001.79
2017-11-21T03:09:02.376Z,1001.79
2017-11-21T03:10:02.353Z,1001.77
2017-11-21T03:11:02.341Z,1001.82
2017-11-21T03:12:02.321Z,1001.81
2017-11-21T03:13:02.303Z,1001.84
2017-11-21T03:14:02.287Z,1001.87
2017-11-21T03:15:02.271Z,1001.82
2017-11-21T03:16:02.253Z,1001.81
2017-11-21T03:17:02.234Z,1001.84
2017-11-21T03:18:02.216Z,1001.83
2017-11-21T03:19:02.201Z,1001.86
2017-11-21T03:20:02.184Z,1001.86
2017-11-21T03:21:02.169Z,1001.86
2017-11-21T03:22:02.151Z,1001.87
2017-11-21T03:23:02.133Z,1001.86
2017-11-21T03:24:02.118Z,1001.86
2017-11-21T03:25:02.101Z,1001.89
2017-11-21T03:26:02.084Z,1001.88
2017-11-21T03:27:02.067Z,1001.91
2017-11-21T03:28:02.053Z,1001.94
2017-11-21T03:29:02.032Z,1001.89
2017-11-21T03:30:02.018Z,1001.88
2017-11-21T03:31:02.004Z,1001.87
2017-11-21T03:32:01.986Z,1001.88
2017-11-21T03:33:01.967Z,1001.95
2017-11-21T03:34:01.950Z,1001.89
2017-11-21T03:35:01.934Z,1001.93
2017-11-21T03:36:01.918Z,1001.87
2017-11-21T03:37:01.901Z,1001.88
2017-11-21T03:38:01.884Z,1001.79
2017-11-21T03:39:01.868Z,1001.87
2017-11-21T03:40:01.851Z,1001.84
2017-11-21T03:41:01.834Z,1001.89
2017-11-21T03:42:01.818Z,1001.88
2017-11-21T03:43:01.801Z,1001.89
2017-11-21T03:44:01.783Z,1001.89
2017-11-21T03:45:01.768Z,1001.87
2017-11-21T03:46:01.751Z,1001.87
2017-11-21T03:47:01.734Z,1001.82
2017-11-21T03:48:01.720Z,1001.86
2017-11-21T03:49:01.701Z,1001.83
2017-11-21T03:50:01.683Z,1001.81
2017-11-21T03:51:01.667Z,1001.8
2017-11-21T03:52:01.653Z,1001.83
2017-11-21T03:53:01.635Z,1001.84
2017-11-21T03:54:01.619Z,1001.84
2017-11-21T03:55:01.601Z,1001.87
2017-11-21T03:56:01.583Z,1001.9
2017-11-21T03:57:01.567Z,1001.9
2017-11-21T03:58:01.550Z,1001.89
2017-11-21T03:59:01.533Z,1001.91
2017-11-21T04:00:01.518Z,1001.91
2017-11-21T04:01:01.501Z,1001.93
2017-11-21T04:02:01.483Z,1001.94
2017-11-21T04:03:01.468Z,1001.96
2017-11-21T04:04:01.653Z,1001.91
2017-11-21T04:05:01.434Z,1001.9
2017-11-21T04:06:01.420Z,1001.93
2017-11-21T04:07:01.405Z,1001.95
2017-11-21T04:08:01.385Z,1001.97
2017-11-21T04:09:01.371Z,1001.96
2017-11-21T04:10:01.358Z,1001.96
2017-11-21T04:11:01.336Z,1002
2017-11-21T04:12:01.321Z,1001.99
2017-11-21T04:13:01.302Z,1002.05
2017-11-21T04:14:01.289Z,1002.04
2017-11-21T04:15:01.269Z,1002.06
2017-11-21T04:16:01.253Z,1002.09
2017-11-21T04:17:01.234Z,1002.03
2017-11-21T04:18:01.219Z,1002.02
2017-11-21T04:19:01.200Z,1002.02
2017-11-21T04:20:01.186Z,1002.11
2017-11-21T04:21:01.167Z,1002.06
2017-11-21T04:22:01.153Z,1002.02
2017-11-21T04:23:01.135Z,1002.02
2017-11-21T04:24:01.118Z,1002.02
2017-11-21T04:25:01.101Z,1002.06
2017-11-21T04:26:01.088Z,1002.08
2017-11-21T04:27:01.072Z,1002.03
2017-11-21T04:28:01.052Z,1002.04
2017-11-21T04:29:01.039Z,1002.01
2017-11-21T04:30:01.018Z,1002.01
2017-11-21T04:31:01.005Z,1002.01
2017-11-21T04:32:00.986Z,1002
2017-11-21T04:33:00.968Z,1002.02
2017-11-21T04:34:00.953Z,1002.06
2017-11-21T04:35:00.936Z,1002.04
2017-11-21T04:36:00.916Z,1002.03
2017-11-21T04:37:00.902Z,1002.07
2017-11-21T04:38:00.885Z,1002.1
2017-11-21T04:39:00.888Z,1002.14
2017-11-21T04:40:00.851Z,1002.09
2017-11-21T04:41:00.837Z,1002.06
2017-11-21T04:42:00.819Z,1002.09
2017-11-21T04:43:00.803Z,1002.1
2017-11-21T04:44:00.787Z,1002.07
2017-11-21T04:45:00.770Z,1002.07
2017-11-21T04:46:00.752Z,1002.11
2017-11-21T04:47:00.741Z,1002.09
2017-11-21T04:48:00.719Z,1002.09
2017-11-21T04:49:00.704Z,1002.07
2017-11-21T04:50:00.689Z,1002.07
2017-11-21T04:51:00.669Z,1002.09
2017-11-21T04:52:00.655Z,1002.05
2017-11-21T04:53:00.637Z,1002.06
2017-11-21T04:54:00.619Z,1002.03
2017-11-21T04:55:00.603Z,1002.04
2017-11-21T04:56:00.587Z,1002.01
2017-11-21T04:57:00.571Z,1002
2017-11-21T04:58:00.552Z,1001.97
2017-11-21T04:59:00.536Z,1001.95
2017-11-21T05:00:00.522Z,1001.94
2017-11-21T05:01:00.506Z,1001.96
2017-11-21T05:02:00.489Z,1001.98
2017-11-21T05:03:00.473Z,1002.02
2017-11-21T05:04:00.455Z,1002.06
2017-11-21T05:05:00.438Z,1002.06
2017-11-21T05:06:00.422Z,1002.07
2017-11-21T05:07:00.406Z,1002.07
2017-11-21T05:08:00.402Z,1002.08
2017-11-21T05:09:00.383Z,1002.05
2017-11-21T05:10:00.354Z,1002.05
2017-11-21T05:11:00.339Z,1002.08
2017-11-21T05:12:00.323Z,1002.04
2017-11-21T05:13:00.306Z,1002.06
2017-11-21T05:14:00.289Z,1002.08
2017-11-21T05:15:00.277Z,1002.06
2017-11-21T05:16:00.257Z,1002.06
2017-11-21T05:17:00.243Z,1002.09
2017-11-21T05:18:00.230Z,1002.08
2017-11-21T05:19:00.209Z,1002.04
2017-11-21T05:20:00.191Z,1002.01
2017-11-21T05:21:00.174Z,1002.1
2017-11-21T05:22:00.157Z,1002.06
2017-11-21T05:23:00.142Z,1002.09
2017-11-21T05:24:00.125Z,1002.11
2017-11-21T05:25:00.109Z,1002.11
2017-11-21T05:26:00.092Z,1002.09
2017-11-21T05:27:00.076Z,1002.05
2017-11-21T05:28:00.070Z,1002.07
2017-11-21T05:29:00.043Z,1002.06
2017-11-21T05:30:00.026Z,1002.09
2017-11-21T05:31:00.011Z,1002.11
2017-11-21T05:31:59.993Z,1002.12
2017-11-21T05:32:59.976Z,1002.13
2017-11-21T05:33:59.960Z,1002.19
2017-11-21T05:34:59.944Z,1002.18
2017-11-21T05:35:59.934Z,1002.22
2017-11-21T05:36:59.911Z,1002.23
2017-11-21T05:37:59.894Z,1002.22
2017-11-21T05:38:59.877Z,1002.24
2017-11-21T05:39:59.863Z,1002.18
2017-11-21T05:40:59.845Z,1002.15
2017-11-21T05:41:59.831Z,1002.15
2017-11-21T05:42:59.814Z,1002.15
2017-11-21T05:43:59.800Z,1002.14
2017-11-21T05:44:59.783Z,1002.2
2017-11-21T05:45:59.773Z,1002.16
2017-11-21T05:46:59.747Z,1002.18
2017-11-21T05:47:59.737Z,1002.15
2017-11-21T05:48:59.714Z,1002.09
2017-11-21T05:49:59.699Z,1002.13
2017-11-21T05:50:59.681Z,1002.14
2017-11-21T05:51:59.665Z,1002.12
2017-11-21T05:52:59.648Z,1002.11
2017-11-21T05:53:59.631Z,1002.07
2017-11-21T05:54:59.617Z,1002.07
2017-11-21T05:55:59.602Z,1002.05
2017-11-21T05:56:59.582Z,1002.11
2017-11-21T05:57:59.566Z,1002.09
2017-11-21T05:58:59.548Z,1002.06
2017-11-21T05:59:59.532Z,1002.06
2017-11-21T06:00:59.516Z,1002.04
2017-11-21T06:01:59.500Z,1002.01
2017-11-21T06:02:59.485Z,1002.03
2017-11-21T06:03:59.673Z,1002.06
2017-11-21T06:04:59.450Z,1002.06
2017-11-21T06:05:59.435Z,1002.08
2017-11-21T06:06:59.417Z,1002.1
2017-11-21T06:07:59.404Z,1002.12
2017-11-21T06:08:59.390Z,1002.09
2017-11-21T06:09:59.370Z,1002.12
2017-11-21T06:10:59.353Z,1002.08
2017-11-21T06:11:59.336Z,1002.07
2017-11-21T06:12:59.321Z,1002.11
2017-11-21T06:13:59.302Z,1002.09
2017-11-21T06:14:59.286Z,1002.1
2017-11-21T06:15:59.269Z,1002.11
2017-11-21T06:16:59.253Z,1002.08
2017-11-21T06:17:59.236Z,1002.11
2017-11-21T06:18:59.222Z,1002.12
2017-11-21T06:19:59.207Z,1002.15
2017-11-21T06:20:59.188Z,1002.12
2017-11-21T06:21:59.172Z,1002.11
2017-11-21T06:22:59.156Z,1002.14
2017-11-21T06:23:59.142Z,1002.11
2017-11-21T06:24:59.122Z,1002.12
2017-11-21T06:25:59.105Z,1002.12
2017-11-21T06:26:59.090Z,1002.13
2017-11-21T06:27:59.073Z,1002.11
2017-11-21T06:28:59.057Z,1002.16
2017-11-21T06:29:59.041Z,1002.09
2017-11-21T06:30:59.023Z,1002.14
2017-11-21T06:31:59.007Z,1002.12
2017-11-21T06:32:58.992Z,1002.18
2017-11-21T06:33:58.975Z,1002.14
2017-11-21T06:34:58.958Z,1002.15
2017-11-21T06:35:58.941Z,1002.21
2017-11-21T06:36:58.926Z,1002.16
2017-11-21T06:37:58.909Z,1002.17
2017-11-21T06:38:58.894Z,1002.2
2017-11-21T06:39:58.889Z,1002.13
2017-11-21T06:40:58.861Z,1002.12
2017-11-21T06:41:58.844Z,1002.09
2017-11-21T06:42:58.837Z,1002.09
2017-11-21T06:43:58.812Z,1002.1
2017-11-21T06:44:58.795Z,1002.11
2017-11-21T06:45:58.778Z,1002.09
2017-11-21T06:46:58.761Z,1002.11
2017-11-21T06:47:58.749Z,1002.16
2017-11-21T06:48:58.731Z,1002.21
2017-11-21T06:49:58.714Z,1002.2
2017-11-21T06:50:58.695Z,1002.2
2017-11-21T06:51:58.679Z,1002.19
2017-11-21T06:52:58.663Z,1002.17
2017-11-21T06:53:58.646Z,1002.2
2017-11-21T06:54:58.631Z,1002.21
2017-11-21T06:55:58.614Z,1002.21
2017-11-21T06:56:58.597Z,1002.14
2017-11-21T06:57:58.581Z,1002.14
2017-11-21T06:58:58.564Z,1002.17
2017-11-21T06:59:58.548Z,1002.18
2017-11-21T07:00:58.533Z,1002.17
2017-11-21T07:01:58.517Z,1002.19
2017-11-21T07:02:58.500Z,1002.23
2017-11-21T07:03:58.482Z,1002.25
2017-11-21T07:04:58.473Z,1002.25
2017-11-21T07:05:58.451Z,1002.25
2017-11-21T07:06:58.433Z,1002.25
2017-11-21T07:07:58.417Z,1002.28
2017-11-21T07:08:58.399Z,1002.29
2017-11-21T07:09:58.390Z,1002.32
2017-11-21T07:10:58.372Z,1002.3
2017-11-21T07:11:58.350Z,1002.35
2017-11-21T07:12:58.337Z,1002.36
2017-11-21T07:13:58.318Z,1002.34
2017-11-21T07:14:58.304Z,1002.36
2017-11-21T07:15:58.283Z,1002.34
2017-11-21T07:16:58.270Z,1002.36
2017-11-21T07:17:58.252Z,1002.32
2017-11-21T07:18:58.236Z,1002.36
2017-11-21T07:19:58.219Z,1002.35
2017-11-21T07:20:58.204Z,1002.32
2017-11-21T07:21:58.186Z,1002.38
2017-11-21T07:22:58.170Z,1002.36
2017-11-21T07:23:58.159Z,1002.37
2017-11-21T07:24:58.137Z,1002.38
2017-11-21T07:25:58.123Z,1002.38
2017-11-21T07:26:58.103Z,1002.37
2017-11-21T07:27:58.087Z,1002.38
2017-11-21T07:28:58.072Z,1002.34
2017-11-21T07:29:58.056Z,1002.4
2017-11-21T07:30:58.041Z,1002.39
2017-11-21T07:31:58.022Z,1002.38
2017-11-21T07:32:58.011Z,1002.38
2017-11-21T07:33:57.990Z,1002.35
2017-11-21T07:34:57.974Z,1002.35
2017-11-21T07:35:57.956Z,1002.39
2017-11-21T07:36:57.940Z,1002.39
2017-11-21T07:37:57.924Z,1002.42
2017-11-21T07:38:57.908Z,1002.4
2017-11-21T07:39:57.891Z,1002.4
2017-11-21T07:40:57.876Z,1002.39
2017-11-21T07:41:57.860Z,1002.41
2017-11-21T07:42:57.851Z,1002.39
2017-11-21T07:43:57.827Z,1002.35
2017-11-21T07:44:57.813Z,1002.36
2017-11-21T07:45:57.792Z,1002.4
2017-11-21T07:46:57.774Z,1002.4
2017-11-21T07:47:57.760Z,1002.41
2017-11-21T07:48:57.743Z,1002.38
2017-11-21T07:49:57.727Z,1002.42
2017-11-21T07:50:57.709Z,1002.35
2017-11-21T07:51:57.693Z,1002.36
2017-11-21T07:52:57.679Z,1002.34
2017-11-21T07:53:57.660Z,1002.39
2017-11-21T07:54:57.646Z,1002.4
2017-11-21T07:55:57.627Z,1002.41
2017-11-21T07:56:57.614Z,1002.45
2017-11-21T07:57:57.595Z,1002.43
2017-11-21T07:58:57.580Z,1002.49
2017-11-21T07:59:57.563Z,1002.48
2017-11-21T08:00:57.549Z,1002.49
2017-11-21T08:01:57.541Z,1002.52
2017-11-21T08:02:57.512Z,1002.56
2017-11-21T08:03:57.497Z,1002.56
2017-11-21T08:04:57.497Z,1002.48
2017-11-21T08:05:57.464Z,1002.52
2017-11-21T08:06:57.447Z,1002.54
2017-11-21T08:07:57.430Z,1002.56
2017-11-21T08:08:57.416Z,1002.66
2017-11-21T08:09:57.402Z,1002.54
2017-11-21T08:10:57.382Z,1002.55
2017-11-21T08:11:57.366Z,1002.57
2017-11-21T08:12:57.349Z,1002.54
2017-11-21T08:13:57.339Z,1002.56
2017-11-21T08:14:57.317Z,1002.57
2017-11-21T08:15:57.302Z,1002.64
2017-11-21T08:16:57.284Z,1002.61
2017-11-21T08:17:57.267Z,1002.65
2017-11-21T08:18:57.254Z,1002.61
2017-11-21T08:19:57.235Z,1002.63
2017-11-21T08:20:57.228Z,1002.62
2017-11-21T08:21:57.204Z,1002.58
2017-11-21T08:22:57.184Z,1002.63
2017-11-21T08:23:57.169Z,1002.64
2017-11-21T08:24:57.152Z,1002.67
2017-11-21T08:25:57.138Z,1002.76
2017-11-21T08:26:57.119Z,1002.69
2017-11-21T08:27:57.104Z,1002.68
2017-11-21T08:28:57.086Z,1002.65
2017-11-21T08:29:57.071Z,1002.65
2017-11-21T08:30:57.055Z,1002.65
2017-11-21T08:31:57.039Z,1002.64
2017-11-21T08:32:57.021Z,1002.62
2017-11-21T08:33:57.006Z,1002.63
2017-11-21T08:34:56.990Z,1002.65
2017-11-21T08:35:56.971Z,1002.66
2017-11-21T08:36:56.961Z,1002.72
2017-11-21T08:37:56.941Z,1002.68
2017-11-21T08:38:56.923Z,1002.72
2017-11-21T08:39:56.908Z,1002.67
2017-11-21T08:40:56.889Z,1002.7
2017-11-21T08:41:56.876Z,1002.68
2017-11-21T08:42:56.861Z,1002.72
2017-11-21T08:43:56.844Z,1002.73
2017-11-21T08:44:56.826Z,1002.73
2017-11-21T08:45:56.811Z,1002.69
2017-11-21T08:46:56.801Z,1002.72
2017-11-21T08:47:56.777Z,1002.73
2017-11-21T08:48:56.760Z,1002.75
2017-11-21T08:49:56.748Z,1002.76
2017-11-21T08:50:56.727Z,1002.76
2017-11-21T08:51:56.711Z,1002.83
2017-11-21T08:52:56.694Z,1002.8
2017-11-21T08:53:56.682Z,1002.82
2017-11-21T08:54:56.678Z,1002.81
2017-11-21T08:55:56.646Z,1002.82
2017-11-21T08:56:56.629Z,1002.84
2017-11-21T08:57:56.617Z,1002.87
2017-11-21T08:58:56.597Z,1002.84
2017-11-21T08:59:56.581Z,1002.86
2017-11-21T09:00:56.569Z,1002.85
2017-11-21T09:01:56.547Z,1002.86
2017-11-21T09:02:56.531Z,1002.9
2017-11-21T09:03:56.523Z,1002.88
2017-11-21T09:04:56.503Z,1002.85
2017-11-21T09:05:56.483Z,1002.88
2017-11-21T09:06:56.468Z,1002.85
2017-11-21T09:07:56.452Z,1002.92
2017-11-21T09:08:56.434Z,1002.91
2017-11-21T09:09:56.418Z,1002.92
2017-11-21T09:10:56.402Z,1002.91
2017-11-21T09:11:56.389Z,1002.9
2017-11-21T09:12:56.374Z,1002.89
2017-11-21T09:13:56.354Z,1002.89
2017-11-21T09:14:56.345Z,1002.91
2017-11-21T09:15:56.322Z,1002.86
2017-11-21T09:16:56.304Z,1002.93
2017-11-21T09:17:56.290Z,1002.92
2017-11-21T09:18:56.275Z,1002.92
2017-11-21T09:19:56.256Z,1002.97
2017-11-21T09:20:56.249Z,1002.93
2017-11-21T09:21:56.228Z,1002.92
2017-11-21T09:22:56.208Z,1002.91
2017-11-21T09:23:56.198Z,1002.9
2017-11-21T09:24:56.180Z,1002.91
2017-11-21T09:25:56.159Z,1002.92
2017-11-21T09:26:56.146Z,1002.88
2017-11-21T09:27:56.126Z,1002.94
2017-11-21T09:28:56.111Z,1002.88
2017-11-21T09:29:56.094Z,1002.9
2017-11-21T09:30:56.079Z,1002.92
2017-11-21T09:31:56.062Z,1002.9
2017-11-21T09:32:56.046Z,1002.9
2017-11-21T09:33:56.030Z,1002.88
2017-11-21T09:34:56.014Z,1002.82
2017-11-21T09:35:56.007Z,1002.83
2017-11-21T09:36:55.982Z,1002.84
2017-11-21T09:37:55.964Z,1002.81
2017-11-21T09:38:55.951Z,1002.77
2017-11-21T09:39:55.934Z,1002.74
2017-11-21T09:40:55.918Z,1002.77
2017-11-21T09:41:55.912Z,1002.82
2017-11-21T09:42:55.887Z,1002.78
2017-11-21T09:43:55.869Z,1002.84
2017-11-21T09:44:55.863Z,1002.8
2017-11-21T09:45:55.837Z,1002.77
2017-11-21T09:46:55.823Z,1002.77
2017-11-21T09:47:55.805Z,1002.79
2017-11-21T09:48:55.787Z,1002.79
2017-11-21T09:49:55.774Z,1002.78
2017-11-21T09:50:55.755Z,1002.76
2017-11-21T09:51:55.741Z,1002.75
2017-11-21T09:52:55.722Z,1002.74
2017-11-21T09:53:55.707Z,1002.71
2017-11-21T09:54:55.691Z,1002.75
2017-11-21T09:55:55.679Z,1002.75
2017-11-21T09:56:55.660Z,1002.73
2017-11-21T09:57:55.642Z,1002.78
2017-11-21T09:58:55.629Z,1002.75
2017-11-21T09:59:55.612Z,1002.74
2017-11-21T10:00:55.597Z,1002.74
2017-11-21T10:01:55.580Z,1002.73
2017-11-21T10:02:55.561Z,1002.77
2017-11-21T10:03:55.545Z,1002.73
2017-11-21T10:04:55.732Z,1002.74
2017-11-21T10:05:55.514Z,1002.74
2017-11-21T10:06:55.500Z,1002.72
2017-11-21T10:07:55.483Z,1002.7
2017-11-21T10:08:55.467Z,1002.71
2017-11-21T10:09:55.451Z,1002.74
2017-11-21T10:10:55.433Z,1002.75
2017-11-21T10:11:55.418Z,1002.77
2017-11-21T10:12:55.401Z,1002.71
2017-11-21T10:13:55.386Z,1002.71
2017-11-21T10:14:55.371Z,1002.71
2017-11-21T10:15:55.354Z,1002.71
2017-11-21T10:16:55.362Z,1002.69
2017-11-21T10:17:55.359Z,1002.66
2017-11-21T10:18:55.305Z,1002.64
2017-11-21T10:19:55.290Z,1002.63
2017-11-21T10:20:55.273Z,1002.57
2017-11-21T10:21:55.266Z,1002.63
2017-11-21T10:22:55.241Z,1002.6
2017-11-21T10:23:55.224Z,1002.64
2017-11-21T10:24:55.223Z,1002.64
2017-11-21T10:25:55.193Z,1002.61
2017-11-21T10:26:55.176Z,1002.58
2017-11-21T10:27:55.159Z,1002.6
2017-11-21T10:28:55.145Z,1002.61
2017-11-21T10:29:55.129Z,1002.57
2017-11-21T10:30:55.113Z,1002.53
2017-11-21T10:31:55.095Z,1002.56
2017-11-21T10:32:55.081Z,1002.53
2017-11-21T10:33:55.067Z,1002.54
2017-11-21T10:34:55.048Z,1002.52
2017-11-21T10:35:55.033Z,1002.48
2017-11-21T10:36:55.017Z,1002.51
2017-11-21T10:37:55.007Z,1002.52
2017-11-21T10:38:54.984Z,1002.53
2017-11-21T10:39:54.970Z,1002.55
2017-11-21T10:40:54.951Z,1002.52
2017-11-21T10:41:54.937Z,1002.49
2017-11-21T10:42:54.919Z,1002.48
2017-11-21T10:43:54.901Z,1002.48
2017-11-21T10:44:54.888Z,1002.45
2017-11-21T10:45:54.872Z,1002.47
2017-11-21T10:46:54.854Z,1002.44
2017-11-21T10:47:54.841Z,1002.41
2017-11-21T10:48:54.823Z,1002.41
2017-11-21T10:49:54.807Z,1002.37
2017-11-21T10:50:54.794Z,1002.4
2017-11-21T10:51:54.773Z,1002.33
2017-11-21T10:52:54.758Z,1002.29
2017-11-21T10:53:54.743Z,1002.31
2017-11-21T10:54:54.725Z,1002.34
2017-11-21T10:55:54.712Z,1002.3
2017-11-21T10:56:54.693Z,1002.34
2017-11-21T10:57:54.682Z,1002.26
2017-11-21T10:58:54.663Z,1002.3
2017-11-21T10:59:54.648Z,1002.31
2017-11-21T11:00:54.630Z,1002.28
2017-11-21T11:01:54.620Z,1002.3
2017-11-21T11:02:54.599Z,1002.3
2017-11-21T11:03:54.583Z,1002.26
2017-11-21T11:04:54.566Z,1002.27
2017-11-21T11:05:54.550Z,1002.21
2017-11-21T11:06:54.533Z,1002.24
2017-11-21T11:07:54.523Z,1002.27
2017-11-21T11:08:54.502Z,1002.23
2017-11-21T11:09:54.484Z,1002.24
2017-11-21T11:10:54.470Z,1002.18
2017-11-21T11:11:54.461Z,1002.23
2017-11-21T11:12:54.435Z,1002.23
2017-11-21T11:13:54.422Z,1002.17
2017-11-21T11:14:54.404Z,1002.14
2017-11-21T11:15:54.388Z,1002.21
2017-11-21T11:16:54.372Z,1002.14
2017-11-21T11:17:54.361Z,1002.1
2017-11-21T11:18:54.340Z,1002.07
2017-11-21T11:19:54.324Z,1002.1
2017-11-21T11:20:54.309Z,1002.19
2017-11-21T11:21:54.295Z,1002.11
2017-11-21T11:22:54.277Z,1002.05
2017-11-21T11:23:54.258Z,1002.07
2017-11-21T11:24:54.243Z,1002.07
2017-11-21T11:25:54.226Z,1002.08
2017-11-21T11:26:54.211Z,1002.04
2017-11-21T11:27:54.195Z,1001.99
2017-11-21T11:28:54.183Z,1002.03
2017-11-21T11:29:54.162Z,1002.03
2017-11-21T11:30:54.145Z,1002.02
2017-11-21T11:31:54.138Z,1002
2017-11-21T11:32:54.113Z,1001.97
2017-11-21T11:33:54.097Z,1002
2017-11-21T11:34:54.080Z,1002.02
2017-11-21T11:35:54.064Z,1001.96
2017-11-21T11:36:54.046Z,1001.97
2017-11-21T11:37:54.030Z,1001.95
2017-11-21T11:38:54.013Z,1001.94
2017-11-21T11:39:53.997Z,1001.99
2017-11-21T11:40:53.983Z,1001.95
2017-11-21T11:41:53.965Z,1001.93
2017-11-21T11:42:53.948Z,1001.88
2017-11-21T11:43:53.935Z,1001.93
2017-11-21T11:44:53.934Z,1001.95
2017-11-21T11:45:53.905Z,1001.94
2017-11-21T11:46:53.884Z,1001.87
2017-11-21T11:47:53.866Z,1001.89
2017-11-21T11:48:53.851Z,1001.89
2017-11-21T11:49:53.834Z,1001.82
2017-11-21T11:50:53.816Z,1001.83
2017-11-21T11:51:53.806Z,1001.85
2017-11-21T11:52:53.787Z,1001.86
2017-11-21T11:53:53.769Z,1001.92
2017-11-21T11:54:53.753Z,1001.8
2017-11-21T11:55:53.736Z,1001.76
2017-11-21T11:56:53.720Z,1001.84
2017-11-21T11:57:53.708Z,1001.84
2017-11-21T11:58:53.687Z,1001.86
2017-11-21T11:59:53.670Z,1001.77
2017-11-21T12:00:53.655Z,1001.88
2017-11-21T12:01:53.639Z,1001.84
2017-11-21T12:02:53.622Z,1001.85
2017-11-21T12:03:53.607Z,1001.85
2017-11-21T12:04:53.792Z,1001.83
2017-11-21T12:05:53.572Z,1001.78
2017-11-21T12:06:53.557Z,1001.79
2017-11-21T12:07:53.539Z,1001.75